createdAt,value
2017-07-02T00:00:31.565Z,1003.75
2017-07-02T00:01:12.079Z,1003.72
2017-07-02T00:01:52.626Z,1003.74
2017-07-02T00:02:33.143Z,1003.73
2017-07-02T00:03:13.663Z,1003.74
2017-07-02T00:03:54.178Z,1003.73
2017-07-02T00:04:34.720Z,1003.7
2017-07-02T00:05:15.219Z,1003.73
2017-07-02T00:05:55.746Z,1003.76
2017-07-02T00:06:36.283Z,1003.77
2017-07-02T00:07:16.776Z,1003.76
2017-07-02T00:07:57.298Z,1003.74
2017-07-02T00:08:37.819Z,1003.72
2017-07-02T00:09:18.338Z,1003.76
2017-07-02T00:09:58.856Z,1003.73
2017-07-02T00:10:39.454Z,1003.76
2017-07-02T00:11:19.970Z,1003.74
2017-07-02T00:12:00.479Z,1003.76
2017-07-02T00:12:40.999Z,1003.75
2017-07-02T00:13:21.579Z,1003.77
2017-07-02T00:14:02.097Z,1003.77
2017-07-02T00:14:42.615Z,1003.74
2017-07-02T00:16:40.821Z,1003.79
2017-07-02T00:17:21.335Z,1003.79
2017-07-02T00:18:01.860Z,1003.85
2017-07-02T00:18:42.398Z,1003.83
2017-07-02T00:19:22.911Z,1003.8
2017-07-02T00:20:03.429Z,1003.8
2017-07-02T00:20:43.943Z,1003.83
2017-07-02T00:21:24.467Z,1003.82
2017-07-02T00:22:04.984Z,1003.84
2017-07-02T00:22:45.517Z,1003.83
2017-07-02T00:23:26.171Z,1003.77
2017-07-02T00:24:06.546Z,1003.78
2017-07-02T00:24:47.069Z,1003.8
2017-07-02T00:25:27.594Z,1003.79
2017-07-02T00:26:08.113Z,1003.79
2017-07-02T00:26:48.631Z,1003.76
2017-07-02T00:27:29.173Z,1003.78
2017-07-02T00:28:09.687Z,1003.79
2017-07-02T00:28:50.196Z,1003.78
2017-07-02T00:29:30.715Z,1003.79
2017-07-02T00:30:11.230Z,1003.75
2017-07-02T00:30:51.764Z,1003.79
2017-07-02T00:31:32.277Z,1003.73
2017-07-02T00:32:12.781Z,1003.78
2017-07-02T00:32:53.305Z,1003.78
2017-07-02T00:33:33.862Z,1003.72
2017-07-02T00:34:14.382Z,1003.83
2017-07-02T00:34:54.910Z,1003.79
2017-07-02T00:35:35.411Z,1003.77
2017-07-02T00:36:15.921Z,1003.74
2017-07-02T00:36:56.425Z,1003.79
2017-07-02T00:37:36.968Z,1003.77
2017-07-02T00:38:17.484Z,1003.8
2017-07-02T00:38:58.011Z,1003.8
2017-07-02T00:39:38.526Z,1003.79
2017-07-02T00:40:19.048Z,1003.78
2017-07-02T00:40:59.572Z,1003.79
2017-07-02T00:41:40.096Z,1003.86
2017-07-02T00:42:20.614Z,1003.81
2017-07-02T00:43:01.138Z,1003.83
2017-07-02T00:43:41.662Z,1003.77
2017-07-02T00:44:22.191Z,1003.83
2017-07-02T00:45:02.702Z,1003.79
2017-07-02T00:45:43.255Z,1003.81
2017-07-02T00:46:23.741Z,1003.8
2017-07-02T00:47:04.258Z,1003.81
2017-07-02T00:47:44.779Z,1003.8
2017-07-02T00:48:25.286Z,1003.82
2017-07-02T00:49:05.795Z,1003.82
2017-07-02T00:49:46.312Z,1003.8
2017-07-02T00:50:26.829Z,1003.84
2017-07-02T00:51:07.347Z,1003.84
2017-07-02T00:51:47.862Z,1003.79
2017-07-02T00:52:28.369Z,1003.83
2017-07-02T00:53:08.878Z,1003.8
2017-07-02T00:53:49.369Z,1003.85
2017-07-02T00:54:29.895Z,1003.8
2017-07-02T00:56:48.353Z,1003.83
2017-07-02T00:57:28.870Z,1003.87
2017-07-02T00:58:09.391Z,1003.86
2017-07-02T00:58:49.919Z,1003.83
2017-07-02T00:59:30.553Z,1003.89
2017-07-02T01:00:10.985Z,1003.89
2017-07-02T01:00:51.493Z,1003.86
2017-07-02T01:01:31.996Z,1003.83
2017-07-02T01:02:12.497Z,1003.9
2017-07-02T01:02:52.981Z,1003.83
2017-07-02T01:03:33.453Z,1003.85
2017-07-02T01:04:13.990Z,1003.88
2017-07-02T01:04:54.471Z,1003.89
2017-07-02T01:05:34.972Z,1003.91
2017-07-02T01:06:15.493Z,1003.95
2017-07-02T01:06:55.969Z,1003.94
2017-07-02T01:07:36.534Z,1004
2017-07-02T01:08:17.093Z,1003.98
2017-07-02T01:08:57.567Z,1004
2017-07-02T01:09:38.072Z,1004.02
2017-07-02T01:10:18.576Z,1004.04
2017-07-02T01:10:59.074Z,1004.08
2017-07-02T01:11:39.608Z,1004.05
2017-07-02T01:12:20.228Z,1004.07
2017-07-02T01:13:00.712Z,1004.09
2017-07-02T01:13:41.194Z,1004.09
2017-07-02T01:14:21.759Z,1004.07
2017-07-02T01:15:02.315Z,1004.09
2017-07-02T01:15:42.791Z,1004.14
2017-07-02T01:16:23.328Z,1004.13
2017-07-02T01:17:03.816Z,1004.11
2017-07-02T01:17:44.307Z,1004.11
2017-07-02T01:18:24.813Z,1004.12
2017-07-02T01:19:05.286Z,1004.1
2017-07-02T01:19:45.822Z,1004.12
2017-07-02T01:20:26.328Z,1004.08
2017-07-02T01:21:06.858Z,1004.05
2017-07-02T01:21:47.447Z,1004.02
2017-07-02T01:22:27.981Z,1003.99
2017-07-02T01:23:08.463Z,1004.02
2017-07-02T01:23:48.994Z,1003.98
2017-07-02T01:24:29.516Z,1003.98
2017-07-02T01:25:10.030Z,1003.98
2017-07-02T01:25:50.529Z,1003.92
2017-07-02T01:26:31.117Z,1003.92
2017-07-02T01:27:11.576Z,1003.92
2017-07-02T01:27:52.226Z,1003.86
2017-07-02T01:28:32.733Z,1003.89
2017-07-02T01:29:13.252Z,1003.92
2017-07-02T01:29:53.759Z,1003.91
2017-07-02T01:30:34.274Z,1003.93
2017-07-02T01:31:14.780Z,1003.96
2017-07-02T01:31:55.306Z,1003.99
2017-07-02T01:32:35.818Z,1004
2017-07-02T01:33:16.347Z,1003.97
2017-07-02T01:33:56.842Z,1004
2017-07-02T01:34:37.518Z,1003.98
2017-07-02T01:35:17.995Z,1004.05
2017-07-02T01:35:58.510Z,1004.04
2017-07-02T01:36:38.976Z,1004.08
2017-07-02T01:37:19.526Z,1004.13
2017-07-02T01:38:00.023Z,1004.07
2017-07-02T01:38:40.535Z,1004.1
2017-07-02T01:39:21.075Z,1004.19
2017-07-02T01:40:01.632Z,1004.17
2017-07-02T01:40:42.122Z,1004.17
2017-07-02T01:41:22.535Z,1004.23
2017-07-02T01:42:03.078Z,1004.26
2017-07-02T01:42:43.587Z,1004.28
2017-07-02T01:43:24.082Z,1004.21
2017-07-02T01:44:04.575Z,1004.17
2017-07-02T01:44:45.098Z,1004.1
2017-07-02T01:45:25.550Z,1004.19
2017-07-02T01:46:06.084Z,1004.09
2017-07-02T01:46:46.592Z,1004.09
2017-07-02T01:47:27.098Z,1004.07
2017-07-02T01:48:07.628Z,1004.09
2017-07-02T01:48:48.113Z,1004.11
2017-07-02T01:49:29.204Z,1004.12
2017-07-02T01:50:09.685Z,1004.09
2017-07-02T01:50:50.169Z,1004.06
2017-07-02T01:51:30.672Z,1004.08
2017-07-02T01:52:11.176Z,1004.06
2017-07-02T01:52:51.726Z,1004.05
2017-07-02T01:53:32.231Z,1004.1
2017-07-02T01:54:12.689Z,1004.18
2017-07-02T01:54:53.173Z,1004.18
2017-07-02T01:55:33.678Z,1004.18
2017-07-02T01:56:14.194Z,1004.15
2017-07-02T01:56:54.678Z,1004.14
2017-07-02T01:57:35.178Z,1004.19
2017-07-02T01:58:15.647Z,1004.17
2017-07-02T01:58:56.175Z,1004.15
2017-07-02T01:59:36.657Z,1004.16
2017-07-02T02:00:17.165Z,1004.11
2017-07-02T02:00:57.716Z,1004.12
2017-07-02T02:01:38.214Z,1004.11
2017-07-02T02:02:18.687Z,1004.13
2017-07-02T02:02:59.207Z,1004.14
2017-07-02T02:03:39.690Z,1004.17
2017-07-02T02:04:20.199Z,1004.13
2017-07-02T02:05:00.742Z,1004.13
2017-07-02T02:05:41.230Z,1004.13
2017-07-02T02:06:21.777Z,1004.13
2017-07-02T02:07:02.249Z,1004.14
2017-07-02T02:07:42.760Z,1004.1
2017-07-02T02:08:23.187Z,1004.11
2017-07-02T02:09:03.698Z,1004.12
2017-07-02T02:09:44.262Z,1004.14
2017-07-02T02:10:24.736Z,1004.13
2017-07-02T02:11:05.215Z,1004.09
2017-07-02T02:11:45.738Z,1004.08
2017-07-02T02:12:26.240Z,1004.14
2017-07-02T02:13:06.730Z,1004.14
2017-07-02T02:13:47.267Z,1004.09
2017-07-02T02:14:27.751Z,1004.15
2017-07-02T02:15:08.290Z,1004.13
2017-07-02T02:15:48.805Z,1004.15
2017-07-02T02:16:29.281Z,1004.1
2017-07-02T02:17:09.819Z,1004.11
2017-07-02T02:17:50.329Z,1004.13
2017-07-02T02:18:30.816Z,1004.11
2017-07-02T02:19:11.367Z,1004.1
2017-07-02T02:19:51.884Z,1004.13
2017-07-02T02:20:32.429Z,1004.15
2017-07-02T02:21:12.962Z,1004.18
2017-07-02T02:21:53.431Z,1004.19
2017-07-02T02:22:33.913Z,1004.18
2017-07-02T02:23:14.456Z,1004.19
2017-07-02T02:23:54.910Z,1004.2
2017-07-02T02:25:53.324Z,1004.2
2017-07-02T02:26:33.802Z,1004.24
2017-07-02T02:27:14.335Z,1004.24
2017-07-02T02:27:54.846Z,1004.22
2017-07-02T02:28:35.355Z,1004.22
2017-07-02T02:29:15.873Z,1004.15
2017-07-02T02:29:56.404Z,1004.19
2017-07-02T02:30:36.893Z,1004.19
2017-07-02T02:31:17.402Z,1004.24
2017-07-02T02:31:57.904Z,1004.25
2017-07-02T02:32:38.435Z,1004.25
2017-07-02T02:33:18.960Z,1004.26
2017-07-02T02:33:59.476Z,1004.26
2017-07-02T02:34:39.969Z,1004.28
2017-07-02T02:35:20.501Z,1004.29
2017-07-02T02:36:01.015Z,1004.36
2017-07-02T02:36:41.540Z,1004.35
2017-07-02T02:37:22.036Z,1004.38
2017-07-02T02:38:02.535Z,1004.39
2017-07-02T02:38:43.035Z,1004.39
2017-07-02T02:39:23.550Z,1004.4
2017-07-02T02:40:04.137Z,1004.43
2017-07-02T02:40:44.576Z,1004.4
2017-07-02T02:41:25.198Z,1004.42
2017-07-02T02:42:05.637Z,1004.43
2017-07-02T02:42:46.182Z,1004.44
2017-07-02T02:43:26.649Z,1004.41
2017-07-02T02:44:07.161Z,1004.4
2017-07-02T02:44:47.620Z,1004.43
2017-07-02T02:47:00.899Z,1004.43
2017-07-02T02:47:41.564Z,1004.42
2017-07-02T02:48:21.946Z,1004.43
2017-07-02T02:49:02.468Z,1004.41
2017-07-02T02:49:43.072Z,1004.42
2017-07-02T02:50:23.645Z,1004.43
2017-07-02T02:51:04.134Z,1004.39
2017-07-02T02:51:44.712Z,1004.37
2017-07-02T02:52:25.184Z,1004.43
2017-07-02T02:53:05.731Z,1004.46
2017-07-02T02:53:46.228Z,1004.44
2017-07-02T02:54:26.718Z,1004.45
2017-07-02T02:55:07.190Z,1004.45
2017-07-02T02:55:47.707Z,1004.46
2017-07-02T02:56:28.233Z,1004.46
2017-07-02T02:57:08.764Z,1004.46
2017-07-02T02:57:49.259Z,1004.48
2017-07-02T02:58:29.804Z,1004.49
2017-07-02T02:59:10.298Z,1004.53
2017-07-02T02:59:50.792Z,1004.5
2017-07-02T03:00:31.298Z,1004.55
2017-07-02T03:01:11.819Z,1004.56
2017-07-02T03:01:52.381Z,1004.55
2017-07-02T03:02:32.867Z,1004.57
2017-07-02T03:03:13.423Z,1004.56
2017-07-02T03:03:53.947Z,1004.59
2017-07-02T03:04:34.478Z,1004.59
2017-07-02T03:05:14.989Z,1004.62
2017-07-02T03:05:55.524Z,1004.63
2017-07-02T03:06:36.084Z,1004.61
2017-07-02T03:07:16.760Z,1004.62
2017-07-02T03:07:57.326Z,1004.63
2017-07-02T03:08:37.842Z,1004.59
2017-07-02T03:09:18.364Z,1004.59
2017-07-02T03:09:58.887Z,1004.57
2017-07-02T03:10:39.419Z,1004.58
2017-07-02T03:11:19.959Z,1004.61
2017-07-02T03:12:00.479Z,1004.6
2017-07-02T03:12:40.996Z,1004.6
2017-07-02T03:13:21.546Z,1004.6
2017-07-02T03:14:02.073Z,1004.61
2017-07-02T03:14:42.624Z,1004.59
2017-07-02T03:15:23.144Z,1004.58
2017-07-02T03:16:03.682Z,1004.61
2017-07-02T03:16:44.201Z,1004.64
2017-07-02T03:17:24.729Z,1004.6
2017-07-02T03:18:05.357Z,1004.63
2017-07-02T03:18:45.874Z,1004.65
2017-07-02T03:19:26.400Z,1004.65
2017-07-02T03:20:06.923Z,1004.65
2017-07-02T03:20:47.459Z,1004.68
2017-07-02T03:21:27.972Z,1004.72
2017-07-02T03:22:08.491Z,1004.74
2017-07-02T03:22:49.008Z,1004.74
2017-07-02T03:23:29.558Z,1004.78
2017-07-02T03:24:10.074Z,1004.79
2017-07-02T03:24:50.592Z,1004.74
2017-07-02T03:25:31.112Z,1004.76
2017-07-02T03:26:11.641Z,1004.74
2017-07-02T03:26:52.154Z,1004.75
2017-07-02T03:27:32.673Z,1004.73
2017-07-02T03:28:13.193Z,1004.74
2017-07-02T03:28:53.712Z,1004.71
2017-07-02T03:29:34.236Z,1004.76
2017-07-02T03:30:14.758Z,1004.75
2017-07-02T03:30:55.268Z,1004.8
2017-07-02T03:31:35.797Z,1004.77
2017-07-02T03:32:16.310Z,1004.78
2017-07-02T03:32:56.824Z,1004.81
2017-07-02T03:33:37.342Z,1004.82
2017-07-02T03:34:17.873Z,1004.85
2017-07-02T03:34:58.393Z,1004.88
2017-07-02T03:35:38.914Z,1004.84
2017-07-02T03:36:19.432Z,1004.85
2017-07-02T03:36:59.960Z,1004.84
2017-07-02T03:37:40.494Z,1004.86
2017-07-02T03:38:21.021Z,1004.87
2017-07-02T03:39:01.544Z,1004.85
2017-07-02T03:39:42.070Z,1004.88
2017-07-02T03:40:22.600Z,1004.91
2017-07-02T03:41:03.137Z,1004.94
2017-07-02T03:41:43.663Z,1004.92
2017-07-02T03:42:24.193Z,1004.9
2017-07-02T03:43:04.729Z,1004.92
2017-07-02T03:43:45.246Z,1004.95
2017-07-02T03:44:25.761Z,1004.95
2017-07-02T03:45:06.301Z,1004.93
2017-07-02T03:45:46.830Z,1004.96
2017-07-02T03:46:27.360Z,1004.96
2017-07-02T03:47:07.883Z,1004.98
2017-07-02T03:47:48.423Z,1004.99
2017-07-02T03:48:28.942Z,1005.03
2017-07-02T03:49:09.466Z,1005.01
2017-07-02T03:49:49.992Z,1005.01
2017-07-02T03:50:30.508Z,1004.99
2017-07-02T03:51:11.035Z,1005.02
2017-07-02T03:51:51.561Z,1005.02
2017-07-02T03:52:32.085Z,1005.05
2017-07-02T03:53:12.614Z,1005.03
2017-07-02T03:53:53.142Z,1005.04
2017-07-02T03:54:33.680Z,1005.04
2017-07-02T03:55:14.207Z,1005.06
2017-07-02T03:55:54.722Z,1005.09
2017-07-02T03:56:35.240Z,1005.05
2017-07-02T03:57:15.765Z,1005.1
2017-07-02T03:57:56.283Z,1005.07
2017-07-02T03:58:36.808Z,1005.07
2017-07-02T03:59:17.324Z,1005.09
2017-07-02T03:59:57.839Z,1005.08
2017-07-02T04:00:38.368Z,1005.13
2017-07-02T04:01:18.902Z,1005.13
2017-07-02T04:01:59.408Z,1005.17
2017-07-02T04:02:39.916Z,1005.13
2017-07-02T04:03:20.436Z,1005.16
2017-07-02T04:04:00.964Z,1005.2
2017-07-02T04:04:41.468Z,1005.16
2017-07-02T04:05:21.993Z,1005.15
2017-07-02T04:06:02.528Z,1005.15
2017-07-02T04:06:43.098Z,1005.18
2017-07-02T04:07:23.616Z,1005.22
2017-07-02T04:08:04.134Z,1005.23
2017-07-02T04:08:44.661Z,1005.21
2017-07-02T04:09:25.161Z,1005.15
2017-07-02T04:10:05.678Z,1005.18
2017-07-02T04:10:46.207Z,1005.2
2017-07-02T04:11:26.722Z,1005.23
2017-07-02T04:12:07.257Z,1005.23
2017-07-02T04:12:47.774Z,1005.23
2017-07-02T04:13:28.300Z,1005.24
2017-07-02T04:14:08.826Z,1005.18
2017-07-02T04:14:49.335Z,1005.22
2017-07-02T04:15:29.861Z,1005.24
2017-07-02T04:16:10.385Z,1005.23
2017-07-02T04:18:24.721Z,1005.3
2017-07-02T04:19:05.298Z,1005.27
2017-07-02T04:19:45.830Z,1005.27
2017-07-02T04:20:26.415Z,1005.34
2017-07-02T04:21:06.979Z,1005.3
2017-07-02T04:21:47.525Z,1005.31
2017-07-02T04:22:28.077Z,1005.3
2017-07-02T04:23:08.578Z,1005.33
2017-07-02T04:23:49.112Z,1005.35
2017-07-02T04:24:29.625Z,1005.37
2017-07-02T04:25:10.133Z,1005.35
2017-07-02T04:25:50.721Z,1005.36
2017-07-02T04:26:31.252Z,1005.34
2017-07-02T04:27:11.851Z,1005.35
2017-07-02T04:27:52.309Z,1005.4
2017-07-02T04:28:32.796Z,1005.34
2017-07-02T04:29:13.356Z,1005.37
2017-07-02T04:29:53.845Z,1005.41
2017-07-02T04:30:34.403Z,1005.45
2017-07-02T04:31:14.889Z,1005.45
2017-07-02T04:31:55.476Z,1005.41
2017-07-02T04:32:36.085Z,1005.43
2017-07-02T04:33:16.516Z,1005.47
2017-07-02T04:33:57.025Z,1005.44
2017-07-02T04:34:37.546Z,1005.42
2017-07-02T04:35:18.103Z,1005.45
2017-07-02T04:35:58.639Z,1005.48
2017-07-02T04:36:39.162Z,1005.44
2017-07-02T04:37:19.615Z,1005.43
2017-07-02T04:38:00.171Z,1005.46
2017-07-02T04:40:13.437Z,1005.48
2017-07-02T04:40:53.931Z,1005.48
2017-07-02T04:41:34.467Z,1005.53
2017-07-02T04:42:14.956Z,1005.5
2017-07-02T04:42:55.417Z,1005.55
2017-07-02T04:43:35.912Z,1005.56
2017-07-02T04:44:16.414Z,1005.57
2017-07-02T04:44:56.956Z,1005.57
2017-07-02T04:45:37.443Z,1005.55
2017-07-02T04:46:18.005Z,1005.55
2017-07-02T04:46:58.568Z,1005.6
2017-07-02T04:47:39.012Z,1005.57
2017-07-02T04:48:19.535Z,1005.54
2017-07-02T04:49:00.049Z,1005.59
2017-07-02T04:49:40.568Z,1005.58
2017-07-02T04:50:21.090Z,1005.63
2017-07-02T04:51:01.558Z,1005.6
2017-07-02T04:51:42.231Z,1005.64
2017-07-02T04:52:22.760Z,1005.64
2017-07-02T04:53:03.266Z,1005.62
2017-07-02T04:53:43.762Z,1005.63
2017-07-02T04:54:24.275Z,1005.64
2017-07-02T04:55:04.820Z,1005.61
2017-07-02T04:55:45.330Z,1005.63
2017-07-02T04:56:25.828Z,1005.63
2017-07-02T04:57:06.351Z,1005.55
2017-07-02T04:57:46.879Z,1005.64
2017-07-02T04:58:27.354Z,1005.59
2017-07-02T04:59:07.858Z,1005.64
2017-07-02T04:59:48.353Z,1005.61
2017-07-02T05:00:28.835Z,1005.66
2017-07-02T05:01:09.326Z,1005.61
2017-07-02T05:01:49.833Z,1005.64
2017-07-02T05:02:30.326Z,1005.65
2017-07-02T05:03:10.855Z,1005.66
2017-07-02T05:03:51.395Z,1005.7
2017-07-02T05:04:31.864Z,1005.68
2017-07-02T05:05:12.345Z,1005.71
2017-07-02T05:05:52.872Z,1005.71
2017-07-02T05:06:33.344Z,1005.72
2017-07-02T05:07:13.829Z,1005.74
2017-07-02T05:07:54.327Z,1005.74
2017-07-02T05:08:34.862Z,1005.75
2017-07-02T05:09:15.320Z,1005.72
2017-07-02T05:09:55.834Z,1005.7
2017-07-02T05:10:36.349Z,1005.74
2017-07-02T05:11:16.839Z,1005.76
2017-07-02T05:11:57.329Z,1005.75
2017-07-02T05:12:37.886Z,1005.78
2017-07-02T05:13:18.350Z,1005.71
2017-07-02T05:13:58.851Z,1005.77
2017-07-02T05:14:39.330Z,1005.75
2017-07-02T05:15:19.840Z,1005.79
2017-07-02T05:16:00.320Z,1005.76
2017-07-02T05:16:40.830Z,1005.76
2017-07-02T05:17:21.353Z,1005.76
2017-07-02T05:18:01.874Z,1005.73
2017-07-02T05:18:42.372Z,1005.71
2017-07-02T05:19:22.907Z,1005.74
2017-07-02T05:20:03.418Z,1005.73
2017-07-02T05:20:43.943Z,1005.69
2017-07-02T05:21:24.407Z,1005.7
2017-07-02T05:22:04.938Z,1005.67
2017-07-02T05:22:45.836Z,1005.74
2017-07-02T05:23:26.202Z,1005.74
2017-07-02T05:24:06.723Z,1005.7
2017-07-02T05:24:47.264Z,1005.68
2017-07-02T05:25:27.723Z,1005.72
2017-07-02T05:26:08.192Z,1005.72
2017-07-02T05:26:48.687Z,1005.73
2017-07-02T05:27:29.223Z,1005.72
2017-07-02T05:28:09.768Z,1005.73
2017-07-02T05:28:50.241Z,1005.76
2017-07-02T05:29:30.747Z,1005.76
2017-07-02T05:30:11.352Z,1005.77
2017-07-02T05:30:51.812Z,1005.81
2017-07-02T05:31:32.320Z,1005.76
2017-07-02T05:32:12.848Z,1005.77
2017-07-02T05:32:53.349Z,1005.8
2017-07-02T05:33:33.900Z,1005.81
2017-07-02T05:34:14.485Z,1005.78
2017-07-02T05:34:55.022Z,1005.83
2017-07-02T05:35:35.539Z,1005.8
2017-07-02T05:36:16.158Z,1005.82
2017-07-02T05:36:56.670Z,1005.8
2017-07-02T05:37:37.182Z,1005.82
2017-07-02T05:38:17.688Z,1005.83
2017-07-02T05:38:58.205Z,1005.85
2017-07-02T05:39:38.741Z,1005.87
2017-07-02T05:40:19.288Z,1005.89
2017-07-02T05:40:59.789Z,1005.93
2017-07-02T05:41:40.369Z,1005.9
2017-07-02T05:42:20.873Z,1005.92
2017-07-02T05:43:01.374Z,1005.92
2017-07-02T05:43:41.895Z,1005.94
2017-07-02T05:44:22.445Z,1005.98
2017-07-02T05:45:02.936Z,1005.97
2017-07-02T05:45:43.454Z,1006
2017-07-02T05:46:23.936Z,1006.04
2017-07-02T05:47:05.781Z,1005.98
2017-07-02T05:47:48.828Z,1005.97
2017-07-02T05:48:29.388Z,1005.97
2017-07-02T05:49:09.882Z,1005.99
2017-07-02T05:49:50.428Z,1006.03
2017-07-02T05:50:30.951Z,1005.99
2017-07-02T05:51:11.434Z,1006.02
2017-07-02T05:51:51.941Z,1006.03
2017-07-02T05:52:32.429Z,1006.02
2017-07-02T05:53:13.295Z,1006.04
2017-07-02T05:55:31.735Z,1006.01
2017-07-02T05:56:13.179Z,1006.02
2017-07-02T05:56:53.822Z,1006.06
2017-07-02T05:57:34.212Z,1006.03
2017-07-02T05:58:14.701Z,1006.03
2017-07-02T05:58:55.162Z,1006.05
2017-07-02T05:59:35.739Z,1006.04
2017-07-02T06:00:16.275Z,1006.08
2017-07-02T06:00:56.781Z,1006.04
2017-07-02T06:01:37.420Z,1006.09
2017-07-02T06:02:17.839Z,1006.07
2017-07-02T06:02:59.292Z,1006.11
2017-07-02T06:03:39.750Z,1006.08
2017-07-02T06:04:20.297Z,1006.14
2017-07-02T06:05:00.796Z,1006.13
2017-07-02T06:05:42.721Z,1006.18
2017-07-02T06:06:22.612Z,1006.14
2017-07-02T06:07:03.175Z,1006.15
2017-07-02T06:07:44.050Z,1006.18
2017-07-02T06:08:24.516Z,1006.18
2017-07-02T06:09:05.049Z,1006.2
2017-07-02T06:09:45.587Z,1006.17
2017-07-02T06:10:26.780Z,1006.2
2017-07-02T06:12:25.058Z,1006.21
2017-07-02T06:13:05.552Z,1006.2
2017-07-02T06:13:46.925Z,1006.22
2017-07-02T06:14:28.899Z,1006.23
2017-07-02T06:15:09.507Z,1006.18
2017-07-02T06:15:50.002Z,1006.24
2017-07-02T06:16:30.720Z,1006.28
2017-07-02T06:17:11.158Z,1006.26
2017-07-02T06:17:52.634Z,1006.28
2017-07-02T06:18:32.916Z,1006.28
2017-07-02T06:19:13.420Z,1006.26
2017-07-02T06:19:54.040Z,1006.22
2017-07-02T06:20:34.414Z,1006.23
2017-07-02T06:21:14.919Z,1006.3
2017-07-02T06:21:55.674Z,1006.3
2017-07-02T06:22:35.945Z,1006.29
2017-07-02T06:23:16.611Z,1006.24
2017-07-02T06:23:57.107Z,1006.28
2017-07-02T06:24:37.746Z,1006.3
2017-07-02T06:25:18.306Z,1006.3
2017-07-02T06:25:58.822Z,1006.29
2017-07-02T06:26:39.284Z,1006.26
2017-07-02T06:27:19.839Z,1006.3
2017-07-02T06:28:00.331Z,1006.29
2017-07-02T06:28:40.862Z,1006.32
2017-07-02T06:29:21.631Z,1006.28
2017-07-02T06:30:01.992Z,1006.3
2017-07-02T06:30:42.531Z,1006.27
2017-07-02T06:31:23.312Z,1006.3
2017-07-02T06:32:03.767Z,1006.33
2017-07-02T06:32:44.323Z,1006.26
2017-07-02T06:33:24.893Z,1006.27
2017-07-02T06:34:05.475Z,1006.31
2017-07-02T06:34:45.940Z,1006.3
2017-07-02T06:35:26.427Z,1006.3
2017-07-02T06:36:07.243Z,1006.28
2017-07-02T06:36:47.792Z,1006.3
2017-07-02T06:37:28.258Z,1006.27
2017-07-02T06:38:08.872Z,1006.32
2017-07-02T06:38:49.754Z,1006.29
2017-07-02T06:39:30.229Z,1006.33
2017-07-02T06:40:11.154Z,1006.31
2017-07-02T06:40:51.901Z,1006.4
2017-07-02T06:41:32.546Z,1006.42
2017-07-02T06:42:12.966Z,1006.44
2017-07-02T06:42:53.492Z,1006.45
2017-07-02T06:43:34.056Z,1006.47
2017-07-02T06:44:14.513Z,1006.56
2017-07-02T06:44:55.374Z,1006.54
2017-07-02T06:45:35.807Z,1006.6
2017-07-02T06:46:16.375Z,1006.59
2017-07-02T06:46:56.800Z,1006.61
2017-07-02T06:47:37.600Z,1006.59
2017-07-02T06:48:18.242Z,1006.61
2017-07-02T06:48:58.602Z,1006.64
2017-07-02T06:49:39.163Z,1006.67
2017-07-02T06:50:19.700Z,1006.61
2017-07-02T06:51:00.391Z,1006.67
2017-07-02T06:51:40.899Z,1006.66
2017-07-02T06:52:21.389Z,1006.68
2017-07-02T06:53:01.892Z,1006.71
2017-07-02T06:53:42.398Z,1006.68
2017-07-02T06:54:23.084Z,1006.67
2017-07-02T06:55:03.489Z,1006.68
2017-07-02T06:55:44.219Z,1006.65
2017-07-02T06:56:24.886Z,1006.65
2017-07-02T06:57:05.628Z,1006.71
2017-07-02T06:57:45.862Z,1006.76
2017-07-02T06:58:26.382Z,1006.76
2017-07-02T06:59:07.033Z,1006.71
2017-07-02T06:59:47.598Z,1006.74
2017-07-02T07:00:28.179Z,1006.75
2017-07-02T07:01:08.772Z,1006.75
2017-07-02T07:01:49.561Z,1006.76
2017-07-02T07:02:29.993Z,1006.77
2017-07-02T07:03:10.474Z,1006.76
2017-07-02T07:03:51.023Z,1006.78
2017-07-02T07:05:50.419Z,1006.75
2017-07-02T07:06:30.979Z,1006.72
2017-07-02T07:07:11.467Z,1006.74
2017-07-02T07:07:52.004Z,1006.77
2017-07-02T07:08:32.621Z,1006.75
2017-07-02T07:09:13.057Z,1006.78
2017-07-02T07:09:53.614Z,1006.75
2017-07-02T07:10:34.131Z,1006.74
2017-07-02T07:11:14.675Z,1006.78
2017-07-02T07:11:55.194Z,1006.76
2017-07-02T07:12:35.721Z,1006.79
2017-07-02T07:13:16.233Z,1006.78
2017-07-02T07:13:56.791Z,1006.74
2017-07-02T07:14:37.263Z,1006.77
2017-07-02T07:15:17.880Z,1006.77
2017-07-02T07:15:58.368Z,1006.75
2017-07-02T07:16:38.839Z,1006.78
2017-07-02T07:17:19.340Z,1006.79
2017-07-02T07:17:59.823Z,1006.77
2017-07-02T07:18:40.309Z,1006.75
2017-07-02T07:19:20.850Z,1006.77
2017-07-02T07:20:01.452Z,1006.76
2017-07-02T07:20:41.899Z,1006.76
2017-07-02T07:21:22.456Z,1006.77
2017-07-02T07:22:03.020Z,1006.76
2017-07-02T07:22:43.562Z,1006.73
2017-07-02T07:23:24.048Z,1006.72
2017-07-02T07:24:04.543Z,1006.8
2017-07-02T07:24:45.114Z,1006.79
2017-07-02T07:25:25.584Z,1006.76
2017-07-02T07:26:06.085Z,1006.79
2017-07-02T07:26:46.567Z,1006.77
2017-07-02T07:27:27.080Z,1006.78
2017-07-02T07:28:07.778Z,1006.79
2017-07-02T07:28:48.360Z,1006.8
2017-07-02T07:29:28.876Z,1006.75
2017-07-02T07:30:09.398Z,1006.79
2017-07-02T07:30:49.882Z,1006.8
2017-07-02T07:31:30.414Z,1006.77
2017-07-02T07:32:10.875Z,1006.76
2017-07-02T07:32:51.386Z,1006.78
2017-07-02T07:33:32.141Z,1006.81
2017-07-02T07:34:12.763Z,1006.79
2017-07-02T07:34:53.262Z,1006.79
2017-07-02T07:35:33.795Z,1006.82
2017-07-02T07:36:14.241Z,1006.79
2017-07-02T07:36:54.728Z,1006.77
2017-07-02T07:37:35.361Z,1006.78
2017-07-02T07:38:15.725Z,1006.82
2017-07-02T07:38:56.273Z,1006.81
2017-07-02T07:39:36.816Z,1006.82
2017-07-02T07:40:17.240Z,1006.79
2017-07-02T07:40:57.806Z,1006.8
2017-07-02T07:41:38.260Z,1006.82
2017-07-02T07:42:18.740Z,1006.78
2017-07-02T07:42:59.278Z,1006.8
2017-07-02T07:44:58.637Z,1006.8
2017-07-02T07:45:39.121Z,1006.8
2017-07-02T07:46:19.660Z,1006.81
2017-07-02T07:47:00.154Z,1006.82
2017-07-02T07:47:40.645Z,1006.79
2017-07-02T07:48:21.168Z,1006.79
2017-07-02T07:49:01.664Z,1006.79
2017-07-02T07:49:42.153Z,1006.78
2017-07-02T07:50:22.663Z,1006.79
2017-07-02T07:51:03.200Z,1006.79
2017-07-02T07:51:43.691Z,1006.82
2017-07-02T07:52:24.211Z,1006.8
2017-07-02T07:54:39.637Z,1006.81
2017-07-02T07:56:53.276Z,1006.83
2017-07-02T07:57:33.740Z,1006.83
2017-07-02T07:58:14.267Z,1006.8
2017-07-02T07:58:54.711Z,1006.81
2017-07-02T07:59:35.221Z,1006.83
2017-07-02T08:00:16.288Z,1006.78
2017-07-02T08:00:56.806Z,1006.77
2017-07-02T08:01:37.555Z,1006.82
2017-07-02T08:02:17.953Z,1006.81
2017-07-02T08:02:58.361Z,1006.86
2017-07-02T08:03:38.901Z,1006.86
2017-07-02T08:04:19.366Z,1006.87
2017-07-02T08:05:02.301Z,1006.86
2017-07-02T08:05:41.083Z,1006.83
2017-07-02T08:06:21.553Z,1006.84
2017-07-02T08:07:02.034Z,1006.9
2017-07-02T08:07:42.515Z,1006.86
2017-07-02T08:08:22.967Z,1006.86
2017-07-02T08:09:03.581Z,1006.87
2017-07-02T08:09:44.103Z,1006.88
2017-07-02T08:10:24.695Z,1006.88
2017-07-02T08:11:05.115Z,1006.84
2017-07-02T08:11:45.792Z,1006.84
2017-07-02T08:12:26.266Z,1006.86
2017-07-02T08:13:06.788Z,1006.83
2017-07-02T08:13:47.193Z,1006.87
2017-07-02T08:14:27.720Z,1006.87
2017-07-02T08:15:08.335Z,1006.86
2017-07-02T08:15:48.855Z,1006.87
2017-07-02T08:16:29.353Z,1006.88
2017-07-02T08:17:09.855Z,1006.89
2017-07-02T08:17:50.432Z,1006.9
2017-07-02T08:18:30.882Z,1006.86
2017-07-02T08:19:11.419Z,1006.92
2017-07-02T08:19:51.901Z,1006.9
2017-07-02T08:20:32.917Z,1006.87
2017-07-02T08:21:13.506Z,1006.9
2017-07-02T08:21:54.219Z,1006.87
2017-07-02T08:22:34.655Z,1006.88
2017-07-02T08:23:15.140Z,1006.87
2017-07-02T08:23:55.717Z,1006.83
2017-07-02T08:24:36.159Z,1006.84
2017-07-02T08:25:16.707Z,1006.84
2017-07-02T08:25:57.163Z,1006.88
2017-07-02T08:26:37.662Z,1006.89
2017-07-02T08:27:18.122Z,1006.83
2017-07-02T08:27:58.640Z,1006.88
2017-07-02T08:28:39.104Z,1006.87
2017-07-02T08:29:19.670Z,1006.86
2017-07-02T08:30:00.837Z,1006.89